NOZ1086 ENGM-EYPA
Flight info
| Callsign | NOZ1086 |
|---|---|
| Flight time | 1h 10m |
| Altitude | 39000 |
| Route | MASEV Z183 LEGPO DCT GELDA M996 TIRIN |
| Aircraft | B38M/M-SDE2E3GHIJ1LRWXY/LB2 |
Departure
| Time | 2026-05-06 16:55 |
|---|---|
| Airport | Oslo-Gardermoen International Airport (ENGM) |
Arrival
| Time | 2026-05-06 18:05 |
|---|---|
| Airport | Palanga International Airport (EYPA) |
| Time | Latitude | Longitude | Altitude | Speed | Heading |
|---|---|---|---|---|---|
| 2026-05-06 16:28 | 60.19331 | 11.10342 | 684 ft | 0 kts | 16° |
| 2026-05-06 16:48 | 60.19328 | 11.10341 | 688 ft | 3 kts | 16° |
| 2026-05-06 16:48 | 60.19303 | 11.10326 | 687 ft | 4 kts | 16° |
| 2026-05-06 16:48 | 60.19282 | 11.10314 | 679 ft | 3 kts | 15° |
| 2026-05-06 16:48 | 60.19257 | 11.10310 | 682 ft | 4 kts | 342° |
| 2026-05-06 16:49 | 60.19238 | 11.10339 | 682 ft | 4 kts | 297° |
| 2026-05-06 16:49 | 60.19232 | 11.10366 | 687 ft | 1 kts | 286° |
| 2026-05-06 16:51 | 60.19247 | 11.10338 | 685 ft | 5 kts | 345° |
| 2026-05-06 16:52 | 60.19267 | 11.10396 | 685 ft | 8 kts | 115° |
| 2026-05-06 16:52 | 60.19248 | 11.10543 | 680 ft | 16 kts | 104° |
| 2026-05-06 16:52 | 60.19212 | 11.10794 | 687 ft | 21 kts | 106° |
| 2026-05-06 16:52 | 60.19176 | 11.11054 | 681 ft | 15 kts | 100° |
| 2026-05-06 16:53 | 60.19245 | 11.11180 | 687 ft | 16 kts | 16° |
| 2026-05-06 16:53 | 60.19363 | 11.11249 | 687 ft | 19 kts | 17° |
| 2026-05-06 16:53 | 60.19502 | 11.11328 | 684 ft | 22 kts | 15° |
| 2026-05-06 16:53 | 60.19655 | 11.11417 | 682 ft | 24 kts | 15° |
| 2026-05-06 16:54 | 60.19734 | 11.11526 | 685 ft | 12 kts | 90° |
| 2026-05-06 16:54 | 60.19711 | 11.11703 | 684 ft | 15 kts | 106° |
| 2026-05-06 16:54 | 60.19661 | 11.11870 | 687 ft | 14 kts | 128° |
| 2026-05-06 16:54 | 60.19632 | 11.11967 | 682 ft | 5 kts | 169° |
| 2026-05-06 16:55 | 60.19509 | 11.11896 | 684 ft | 50 kts | 197° |
| 2026-05-06 16:55 | 60.18931 | 11.11561 | 685 ft | 120 kts | 196° |
| 2026-05-06 16:55 | 60.17947 | 11.10994 | 739 ft | 167 kts | 199° |
| 2026-05-06 16:55 | 60.16807 | 11.10378 | 1351 ft | 172 kts | 197° |
| 2026-05-06 16:56 | 60.15660 | 11.10303 | 2335 ft | 164 kts | 174° |
| 2026-05-06 16:56 | 60.14473 | 11.10147 | 2699 ft | 184 kts | 202° |
| 2026-05-06 16:56 | 60.13144 | 11.09482 | 3069 ft | 214 kts | 179° |
| 2026-05-06 16:56 | 60.11718 | 11.10709 | 3542 ft | 241 kts | 136° |
| 2026-05-06 16:57 | 60.10646 | 11.13442 | 4133 ft | 258 kts | 131° |
| 2026-05-06 16:57 | 60.09438 | 11.16258 | 4773 ft | 271 kts | 133° |
| 2026-05-06 16:57 | 60.08220 | 11.19143 | 5679 ft | 274 kts | 124° |
| 2026-05-06 16:57 | 60.07591 | 11.22728 | 6294 ft | 277 kts | 95° |
| 2026-05-06 16:58 | 60.07849 | 11.26544 | 6833 ft | 280 kts | 75° |
| 2026-05-06 16:58 | 60.08210 | 11.30380 | 7694 ft | 282 kts | 83° |
| 2026-05-06 16:58 | 60.08489 | 11.34295 | 8800 ft | 285 kts | 82° |
| 2026-05-06 16:58 | 60.08789 | 11.38244 | 9896 ft | 290 kts | 83° |
| 2026-05-06 16:59 | 60.09110 | 11.42331 | 10630 ft | 306 kts | 83° |
| 2026-05-06 16:59 | 60.09457 | 11.46658 | 11275 ft | 322 kts | 82° |
| 2026-05-06 16:59 | 60.09824 | 11.51173 | 11994 ft | 335 kts | 82° |
| 2026-05-06 16:59 | 60.10200 | 11.55783 | 12807 ft | 343 kts | 82° |
| 2026-05-06 17:00 | 60.10592 | 11.60611 | 13663 ft | 351 kts | 82° |
| 2026-05-06 17:00 | 60.10987 | 11.65500 | 14392 ft | 358 kts | 82° |
| 2026-05-06 17:00 | 60.11387 | 11.70473 | 15149 ft | 365 kts | 82° |
| 2026-05-06 17:00 | 60.11792 | 11.75538 | 15885 ft | 371 kts | 82° |
| 2026-05-06 17:01 | 60.12203 | 11.80690 | 16616 ft | 377 kts | 82° |
| 2026-05-06 17:01 | 60.12617 | 11.85913 | 17345 ft | 383 kts | 82° |
| 2026-05-06 17:01 | 60.13036 | 11.91225 | 18059 ft | 388 kts | 82° |
| 2026-05-06 17:01 | 60.13458 | 11.96619 | 18676 ft | 394 kts | 82° |
| 2026-05-06 17:02 | 60.13885 | 12.02087 | 19270 ft | 399 kts | 82° |
| 2026-05-06 17:02 | 60.14313 | 12.07610 | 19859 ft | 403 kts | 82° |
| 2026-05-06 17:02 | 60.14744 | 12.13196 | 20475 ft | 407 kts | 82° |
| 2026-05-06 17:02 | 60.15177 | 12.18843 | 21051 ft | 412 kts | 83° |
| 2026-05-06 17:03 | 60.15606 | 12.24480 | 21633 ft | 416 kts | 83° |
| 2026-05-06 17:03 | 60.16043 | 12.30247 | 22190 ft | 421 kts | 83° |
| 2026-05-06 17:03 | 60.16483 | 12.36089 | 22756 ft | 425 kts | 83° |
| 2026-05-06 17:03 | 60.16924 | 12.41988 | 23347 ft | 430 kts | 84° |
| 2026-05-06 17:04 | 60.17369 | 12.47961 | 23787 ft | 436 kts | 84° |
| 2026-05-06 17:04 | 60.17752 | 12.54033 | 24225 ft | 439 kts | 90° |
| 2026-05-06 17:04 | 60.17824 | 12.60172 | 24698 ft | 441 kts | 94° |
| 2026-05-06 17:04 | 60.17479 | 12.66237 | 25166 ft | 434 kts | 110° |
| 2026-05-06 17:05 | 60.16651 | 12.72061 | 25612 ft | 436 kts | 112° |
| 2026-05-06 17:05 | 60.16143 | 12.78153 | 26088 ft | 447 kts | 101° |
| 2026-05-06 17:05 | 60.15808 | 12.84366 | 26543 ft | 450 kts | 103° |
| 2026-05-06 17:05 | 60.15423 | 12.90627 | 26994 ft | 453 kts | 103° |
| 2026-05-06 17:06 | 60.15022 | 12.96919 | 27455 ft | 456 kts | 104° |
| 2026-05-06 17:06 | 60.14609 | 13.03256 | 27904 ft | 459 kts | 104° |
| 2026-05-06 17:06 | 60.14190 | 13.09632 | 28348 ft | 463 kts | 104° |
| 2026-05-06 17:06 | 60.13763 | 13.16053 | 28770 ft | 466 kts | 104° |
| 2026-05-06 17:07 | 60.13332 | 13.22513 | 29207 ft | 469 kts | 104° |
| 2026-05-06 17:07 | 60.12894 | 13.29011 | 29618 ft | 472 kts | 104° |
| 2026-05-06 17:07 | 60.12450 | 13.35555 | 30012 ft | 475 kts | 105° |
| 2026-05-06 17:07 | 60.12153 | 13.39907 | 30232 ft | 477 kts | 105° |
| 2026-05-06 17:08 | 60.11699 | 13.46499 | 30585 ft | 477 kts | 105° |
| 2026-05-06 17:08 | 60.11244 | 13.53090 | 30968 ft | 478 kts | 104° |
| 2026-05-06 17:08 | 60.10781 | 13.59713 | 31293 ft | 481 kts | 104° |
| 2026-05-06 17:08 | 60.10313 | 13.66376 | 31633 ft | 483 kts | 104° |
| 2026-05-06 17:09 | 60.09840 | 13.73053 | 31963 ft | 486 kts | 104° |
| 2026-05-06 17:09 | 60.09360 | 13.79770 | 32285 ft | 488 kts | 104° |
| 2026-05-06 17:09 | 60.08875 | 13.86522 | 32613 ft | 490 kts | 104° |
| 2026-05-06 17:09 | 60.08385 | 13.93296 | 32938 ft | 493 kts | 104° |
| 2026-05-06 17:10 | 60.07888 | 14.00098 | 33261 ft | 495 kts | 104° |
| 2026-05-06 17:10 | 60.07386 | 14.06932 | 33581 ft | 497 kts | 104° |
| 2026-05-06 17:10 | 60.06877 | 14.13795 | 33835 ft | 499 kts | 104° |
| 2026-05-06 17:10 | 60.06364 | 14.20689 | 34082 ft | 502 kts | 104° |
| 2026-05-06 17:11 | 60.05846 | 14.27613 | 34353 ft | 504 kts | 104° |
| 2026-05-06 17:11 | 60.05293 | 14.34538 | 34623 ft | 502 kts | 108° |
| 2026-05-06 17:11 | 60.04176 | 14.41046 | 34907 ft | 490 kts | 123° |
| 2026-05-06 17:11 | 60.02368 | 14.46676 | 35186 ft | 474 kts | 139° |
| 2026-05-06 17:12 | 60.00109 | 14.51392 | 35490 ft | 469 kts | 142° |
| 2026-05-06 17:12 | 59.97787 | 14.55974 | 35769 ft | 469 kts | 144° |
| 2026-05-06 17:12 | 59.95425 | 14.60436 | 36105 ft | 467 kts | 144° |
| 2026-05-06 17:12 | 59.93043 | 14.64841 | 36398 ft | 467 kts | 144° |
| 2026-05-06 17:13 | 59.90656 | 14.69201 | 36737 ft | 465 kts | 144° |
| 2026-05-06 17:13 | 59.88272 | 14.73530 | 37085 ft | 464 kts | 144° |
| 2026-05-06 17:13 | 59.85878 | 14.77851 | 37363 ft | 464 kts | 144° |
| 2026-05-06 17:13 | 59.83480 | 14.82153 | 37622 ft | 465 kts | 144° |
| 2026-05-06 17:14 | 59.81079 | 14.86459 | 37894 ft | 465 kts | 144° |
| 2026-05-06 17:14 | 59.78676 | 14.90761 | 38149 ft | 466 kts | 144° |
| 2026-05-06 17:14 | 59.76267 | 14.95068 | 38405 ft | 466 kts | 144° |
| 2026-05-06 17:14 | 59.73855 | 14.99376 | 38644 ft | 467 kts | 143° |
| 2026-05-06 17:15 | 59.71442 | 15.03677 | 38825 ft | 467 kts | 143° |
| 2026-05-06 17:15 | 59.69056 | 15.07918 | 38941 ft | 468 kts | 143° |
| 2026-05-06 17:15 | 59.66631 | 15.12207 | 38948 ft | 467 kts | 143° |
| 2026-05-06 17:16 | 59.61799 | 15.20758 | 38932 ft | 466 kts | 144° |
| 2026-05-06 17:16 | 59.56939 | 15.29319 | 38945 ft | 469 kts | 144° |
| 2026-05-06 17:17 | 59.52069 | 15.37856 | 38938 ft | 469 kts | 144° |
| 2026-05-06 17:17 | 59.47193 | 15.46373 | 38940 ft | 468 kts | 144° |
| 2026-05-06 17:18 | 59.42315 | 15.54859 | 38945 ft | 468 kts | 144° |
| 2026-05-06 17:18 | 59.37431 | 15.63319 | 38942 ft | 468 kts | 144° |
| 2026-05-06 17:19 | 59.32541 | 15.71752 | 38940 ft | 468 kts | 144° |
| 2026-05-06 17:19 | 59.27652 | 15.80160 | 38946 ft | 468 kts | 144° |
| 2026-05-06 17:20 | 59.22760 | 15.88537 | 38952 ft | 467 kts | 144° |
| 2026-05-06 17:20 | 59.17862 | 15.96882 | 38936 ft | 467 kts | 144° |
| 2026-05-06 17:21 | 59.12974 | 16.05189 | 38950 ft | 466 kts | 144° |
| 2026-05-06 17:21 | 59.08083 | 16.13464 | 38960 ft | 466 kts | 144° |
| 2026-05-06 17:22 | 59.03190 | 16.21709 | 38959 ft | 465 kts | 144° |
| 2026-05-06 17:22 | 58.98295 | 16.29926 | 38966 ft | 465 kts | 144° |
| 2026-05-06 17:23 | 58.93395 | 16.38118 | 38971 ft | 465 kts | 144° |
| 2026-05-06 17:23 | 58.88493 | 16.46283 | 38979 ft | 465 kts | 145° |
| 2026-05-06 17:24 | 58.83585 | 16.54425 | 38980 ft | 465 kts | 145° |
| 2026-05-06 17:24 | 58.78674 | 16.62540 | 38960 ft | 464 kts | 145° |
| 2026-05-06 17:25 | 58.73773 | 16.70609 | 38987 ft | 463 kts | 145° |
| 2026-05-06 17:25 | 58.68874 | 16.78643 | 38986 ft | 463 kts | 145° |
| 2026-05-06 17:26 | 58.63972 | 16.86653 | 38987 ft | 463 kts | 145° |
| 2026-05-06 17:26 | 58.59068 | 16.94633 | 38990 ft | 462 kts | 145° |
| 2026-05-06 17:27 | 58.54160 | 17.02590 | 38994 ft | 462 kts | 145° |
| 2026-05-06 17:27 | 58.49246 | 17.10522 | 38972 ft | 462 kts | 146° |
| 2026-05-06 17:28 | 58.44373 | 17.18368 | 38975 ft | 461 kts | 145° |
| 2026-05-06 17:28 | 58.39475 | 17.26219 | 38994 ft | 460 kts | 145° |
| 2026-05-06 17:29 | 58.34571 | 17.34050 | 38995 ft | 460 kts | 146° |
| 2026-05-06 17:29 | 58.29669 | 17.41850 | 38995 ft | 459 kts | 146° |
| 2026-05-06 17:30 | 58.24761 | 17.49629 | 38994 ft | 459 kts | 146° |
| 2026-05-06 17:30 | 58.19848 | 17.57388 | 38987 ft | 459 kts | 146° |
| 2026-05-06 17:31 | 58.14928 | 17.65129 | 38995 ft | 460 kts | 146° |
| 2026-05-06 17:31 | 58.10007 | 17.72842 | 38996 ft | 459 kts | 146° |
| 2026-05-06 17:32 | 58.05083 | 17.80532 | 38988 ft | 459 kts | 146° |
| 2026-05-06 17:32 | 58.00159 | 17.88194 | 38995 ft | 459 kts | 146° |
| 2026-05-06 17:33 | 57.95416 | 17.95547 | 38993 ft | 459 kts | 146° |
| 2026-05-06 17:33 | 57.90484 | 18.03164 | 38993 ft | 459 kts | 146° |
| 2026-05-06 17:34 | 57.85548 | 18.10761 | 38994 ft | 459 kts | 146° |
| 2026-05-06 17:34 | 57.80609 | 18.18335 | 38992 ft | 459 kts | 146° |
| 2026-05-06 17:35 | 57.75664 | 18.25891 | 38994 ft | 459 kts | 146° |
| 2026-05-06 17:35 | 57.70749 | 18.33372 | 38993 ft | 458 kts | 146° |
| 2026-05-06 17:36 | 57.63321 | 18.44629 | 38972 ft | 458 kts | 146° |
| 2026-05-06 17:36 | 57.58368 | 18.52102 | 38983 ft | 458 kts | 146° |
| 2026-05-06 17:37 | 57.53410 | 18.59555 | 38985 ft | 458 kts | 146° |
| 2026-05-06 17:37 | 57.50938 | 18.63260 | 38788 ft | 456 kts | 146° |
| 2026-05-06 17:37 | 57.48472 | 18.66949 | 38160 ft | 453 kts | 146° |
| 2026-05-06 17:38 | 57.46013 | 18.70622 | 37399 ft | 453 kts | 146° |
| 2026-05-06 17:38 | 57.43564 | 18.74274 | 36797 ft | 450 kts | 146° |
| 2026-05-06 17:38 | 57.41138 | 18.77885 | 36337 ft | 443 kts | 146° |
| 2026-05-06 17:38 | 57.38749 | 18.81435 | 35876 ft | 437 kts | 146° |
| 2026-05-06 17:39 | 57.36388 | 18.84937 | 35354 ft | 433 kts | 146° |
| 2026-05-06 17:39 | 57.34047 | 18.88405 | 34830 ft | 429 kts | 146° |
| 2026-05-06 17:39 | 57.31731 | 18.91828 | 34339 ft | 424 kts | 146° |
| 2026-05-06 17:39 | 57.29437 | 18.95214 | 33815 ft | 420 kts | 146° |
| 2026-05-06 17:40 | 57.27163 | 18.98564 | 33246 ft | 416 kts | 146° |
| 2026-05-06 17:40 | 57.24917 | 19.01868 | 32740 ft | 411 kts | 146° |
| 2026-05-06 17:40 | 57.22695 | 19.05133 | 32289 ft | 405 kts | 146° |
| 2026-05-06 17:40 | 57.20504 | 19.08347 | 31827 ft | 400 kts | 146° |
| 2026-05-06 17:41 | 57.18333 | 19.11526 | 31381 ft | 396 kts | 146° |
| 2026-05-06 17:41 | 57.16182 | 19.14672 | 30939 ft | 393 kts | 146° |
| 2026-05-06 17:41 | 57.14053 | 19.17782 | 30492 ft | 390 kts | 146° |
| 2026-05-06 17:41 | 57.11935 | 19.20872 | 30061 ft | 387 kts | 146° |
| 2026-05-06 17:42 | 57.09833 | 19.23933 | 29563 ft | 384 kts | 146° |
| 2026-05-06 17:42 | 57.07751 | 19.26962 | 29123 ft | 380 kts | 146° |
| 2026-05-06 17:42 | 57.05671 | 19.29982 | 28950 ft | 384 kts | 146° |
| 2026-05-06 17:42 | 57.03563 | 19.33040 | 28949 ft | 389 kts | 146° |
| 2026-05-06 17:43 | 56.99274 | 19.39246 | 28955 ft | 394 kts | 146° |
| 2026-05-06 17:43 | 56.94999 | 19.45415 | 28933 ft | 394 kts | 145° |
| 2026-05-06 17:44 | 56.90685 | 19.51622 | 28881 ft | 391 kts | 145° |
| 2026-05-06 17:44 | 56.88547 | 19.54691 | 28257 ft | 392 kts | 145° |
| 2026-05-06 17:44 | 56.86428 | 19.57806 | 27763 ft | 389 kts | 144° |
| 2026-05-06 17:45 | 56.84347 | 19.60945 | 27281 ft | 387 kts | 144° |
| 2026-05-06 17:45 | 56.82274 | 19.64064 | 26819 ft | 384 kts | 144° |
| 2026-05-06 17:45 | 56.80216 | 19.67157 | 26335 ft | 382 kts | 144° |
| 2026-05-06 17:45 | 56.78170 | 19.70226 | 25920 ft | 379 kts | 144° |
| 2026-05-06 17:46 | 56.76141 | 19.73265 | 25491 ft | 377 kts | 144° |
| 2026-05-06 17:46 | 56.74121 | 19.76287 | 25074 ft | 374 kts | 144° |
| 2026-05-06 17:46 | 56.72115 | 19.79283 | 24662 ft | 372 kts | 144° |
| 2026-05-06 17:46 | 56.70118 | 19.82262 | 24257 ft | 370 kts | 144° |
| 2026-05-06 17:47 | 56.68134 | 19.85218 | 23860 ft | 368 kts | 144° |
| 2026-05-06 17:47 | 56.66161 | 19.88152 | 23456 ft | 365 kts | 145° |
| 2026-05-06 17:47 | 56.64198 | 19.91069 | 22993 ft | 363 kts | 145° |
| 2026-05-06 17:47 | 56.62248 | 19.93962 | 22556 ft | 361 kts | 145° |
| 2026-05-06 17:48 | 56.60215 | 19.96559 | 22135 ft | 354 kts | 153° |
| 2026-05-06 17:48 | 56.58132 | 19.98941 | 21672 ft | 353 kts | 152° |
| 2026-05-06 17:48 | 56.56073 | 20.01344 | 21274 ft | 351 kts | 152° |
| 2026-05-06 17:48 | 56.54033 | 20.03744 | 20857 ft | 349 kts | 152° |
| 2026-05-06 17:49 | 56.52004 | 20.06141 | 20440 ft | 347 kts | 152° |
| 2026-05-06 17:49 | 56.49996 | 20.08515 | 20109 ft | 342 kts | 152° |
| 2026-05-06 17:49 | 56.48006 | 20.10868 | 19694 ft | 341 kts | 152° |
| 2026-05-06 17:49 | 56.46027 | 20.13206 | 19312 ft | 339 kts | 152° |
| 2026-05-06 17:50 | 56.44056 | 20.15532 | 18936 ft | 337 kts | 152° |
| 2026-05-06 17:50 | 56.42090 | 20.17848 | 18438 ft | 339 kts | 152° |
| 2026-05-06 17:50 | 56.40086 | 20.20205 | 17616 ft | 349 kts | 152° |
| 2026-05-06 17:50 | 56.38018 | 20.22635 | 16668 ft | 360 kts | 152° |
| 2026-05-06 17:51 | 56.35884 | 20.25140 | 15700 ft | 372 kts | 152° |
| 2026-05-06 17:51 | 56.33690 | 20.27713 | 14881 ft | 378 kts | 151° |
| 2026-05-06 17:51 | 56.31497 | 20.30282 | 14421 ft | 374 kts | 151° |
| 2026-05-06 17:51 | 56.29328 | 20.32819 | 13902 ft | 371 kts | 151° |
| 2026-05-06 17:52 | 56.27174 | 20.35334 | 13378 ft | 367 kts | 151° |
| 2026-05-06 17:52 | 56.25037 | 20.37827 | 12817 ft | 364 kts | 150° |
| 2026-05-06 17:52 | 56.22946 | 20.40261 | 12266 ft | 361 kts | 150° |
| 2026-05-06 17:52 | 56.20847 | 20.42699 | 11746 ft | 357 kts | 151° |
| 2026-05-06 17:53 | 56.18774 | 20.45106 | 11302 ft | 352 kts | 151° |
| 2026-05-06 17:53 | 56.16744 | 20.47462 | 11002 ft | 343 kts | 151° |
| 2026-05-06 17:53 | 56.14784 | 20.49732 | 10571 ft | 328 kts | 151° |
| 2026-05-06 17:53 | 56.12896 | 20.51918 | 9997 ft | 318 kts | 151° |
| 2026-05-06 17:54 | 56.11082 | 20.54013 | 9735 ft | 299 kts | 151° |
| 2026-05-06 17:54 | 56.09406 | 20.55948 | 9676 ft | 275 kts | 152° |
| 2026-05-06 17:54 | 56.07826 | 20.57771 | 9544 ft | 265 kts | 151° |
| 2026-05-06 17:54 | 56.06287 | 20.59543 | 9257 ft | 262 kts | 151° |
| 2026-05-06 17:55 | 56.04758 | 20.61301 | 8932 ft | 260 kts | 151° |
| 2026-05-06 17:55 | 56.03751 | 20.62458 | 8702 ft | 260 kts | 151° |
| 2026-05-06 17:55 | 56.02238 | 20.64195 | 8423 ft | 256 kts | 151° |
| 2026-05-06 17:55 | 56.00250 | 20.66477 | 7779 ft | 254 kts | 149° |
| 2026-05-06 17:56 | 55.99263 | 20.67609 | 7428 ft | 253 kts | 149° |
| 2026-05-06 17:56 | 55.97799 | 20.69283 | 7003 ft | 248 kts | 148° |
| 2026-05-06 17:56 | 55.96342 | 20.70947 | 6457 ft | 248 kts | 146° |
| 2026-05-06 17:56 | 55.94905 | 20.72589 | 5978 ft | 244 kts | 145° |
| 2026-05-06 17:57 | 55.93470 | 20.74232 | 5578 ft | 245 kts | 144° |
| 2026-05-06 17:57 | 55.92030 | 20.75877 | 5226 ft | 246 kts | 144° |
| 2026-05-06 17:57 | 55.90603 | 20.77506 | 5011 ft | 241 kts | 146° |
| 2026-05-06 17:57 | 55.89196 | 20.79114 | 4730 ft | 239 kts | 146° |
| 2026-05-06 17:58 | 55.87803 | 20.80702 | 4502 ft | 235 kts | 147° |
| 2026-05-06 17:58 | 55.86455 | 20.82232 | 4397 ft | 225 kts | 147° |
| 2026-05-06 17:58 | 55.85171 | 20.83692 | 4260 ft | 213 kts | 147° |
| 2026-05-06 17:58 | 55.84001 | 20.85160 | 4024 ft | 199 kts | 133° |
| 2026-05-06 17:59 | 55.83396 | 20.87257 | 3841 ft | 185 kts | 106° |
| 2026-05-06 17:59 | 55.83111 | 20.89400 | 3626 ft | 172 kts | 104° |
| 2026-05-06 17:59 | 55.82856 | 20.91407 | 3431 ft | 162 kts | 103° |
| 2026-05-06 17:59 | 55.82617 | 20.93366 | 3341 ft | 162 kts | 102° |
| 2026-05-06 18:00 | 55.82384 | 20.95314 | 3269 ft | 160 kts | 102° |
| 2026-05-06 18:00 | 55.82155 | 20.97244 | 3168 ft | 157 kts | 101° |
| 2026-05-06 18:00 | 55.81943 | 20.99075 | 3054 ft | 146 kts | 101° |
| 2026-05-06 18:00 | 55.81766 | 21.00804 | 2903 ft | 140 kts | 92° |
| 2026-05-06 18:01 | 55.82067 | 21.02424 | 2663 ft | 142 kts | 59° |
| 2026-05-06 18:01 | 55.82874 | 21.03478 | 2467 ft | 151 kts | 30° |
| 2026-05-06 18:01 | 55.83899 | 21.03960 | 2346 ft | 152 kts | 24° |
| 2026-05-06 18:01 | 55.84920 | 21.04384 | 2234 ft | 149 kts | 24° |
| 2026-05-06 18:02 | 55.85921 | 21.04796 | 2123 ft | 147 kts | 23° |
| 2026-05-06 18:02 | 55.86913 | 21.05201 | 1993 ft | 147 kts | 24° |
| 2026-05-06 18:02 | 55.87895 | 21.05598 | 1787 ft | 146 kts | 23° |
| 2026-05-06 18:02 | 55.88880 | 21.05993 | 1559 ft | 144 kts | 22° |
| 2026-05-06 18:03 | 55.89849 | 21.06384 | 1337 ft | 143 kts | 22° |
| 2026-05-06 18:03 | 55.90781 | 21.06758 | 1167 ft | 131 kts | 22° |
| 2026-05-06 18:03 | 55.91644 | 21.07105 | 1003 ft | 125 kts | 21° |
| 2026-05-06 18:03 | 55.92509 | 21.07465 | 802 ft | 131 kts | 17° |
| 2026-05-06 18:04 | 55.93390 | 21.07801 | 667 ft | 128 kts | 18° |
| 2026-05-06 18:04 | 55.94262 | 21.08162 | 522 ft | 131 kts | 16° |
| 2026-05-06 18:04 | 55.95146 | 21.08503 | 333 ft | 127 kts | 17° |
| 2026-05-06 18:04 | 55.96013 | 21.08856 | 148 ft | 130 kts | 17° |
| 2026-05-06 18:05 | 55.96867 | 21.09203 | 42 ft | 117 kts | 16° |
| 2026-05-06 18:05 | 55.97459 | 21.09443 | 41 ft | 56 kts | 13° |
| 2026-05-06 18:05 | 55.97827 | 21.09589 | 41 ft | 52 kts | 12° |
| 2026-05-06 18:05 | 55.98133 | 21.09710 | 41 ft | 29 kts | 12° |
| 2026-05-06 18:06 | 55.98268 | 21.09721 | 41 ft | 10 kts | 35° |
| 2026-05-06 18:06 | 55.98266 | 21.09746 | 38 ft | 1 kts | 143° |
| 2026-05-06 18:06 | 55.98230 | 21.09749 | 41 ft | 13 kts | 189° |
| 2026-05-06 18:06 | 55.98076 | 21.09687 | 41 ft | 32 kts | 192° |
| 2026-05-06 18:07 | 55.97807 | 21.09580 | 41 ft | 45 kts | 192° |
| 2026-05-06 18:07 | 55.97487 | 21.09452 | 41 ft | 49 kts | 193° |
| 2026-05-06 18:07 | 55.97218 | 21.09344 | 41 ft | 29 kts | 192° |
| 2026-05-06 18:07 | 55.97109 | 21.09370 | 41 ft | 14 kts | 118° |
| 2026-05-06 18:08 | 55.97089 | 21.09502 | 41 ft | 10 kts | 101° |
| 2026-05-06 18:08 | 55.97057 | 21.09552 | 41 ft | 6 kts | 172° |
| 2026-05-06 18:08 | 55.97011 | 21.09536 | 41 ft | 9 kts | 196° |
| 2026-05-06 18:08 | 55.96976 | 21.09591 | 41 ft | 9 kts | 106° |
| 2026-05-06 18:09 | 55.96978 | 21.09652 | 41 ft | 4 kts | 46° |
| 2026-05-06 18:09 | 55.96998 | 21.09663 | 39 ft | 1 kts | 346° |
| 2026-05-06 18:09 | 55.97008 | 21.09648 | 41 ft | 1 kts | 298° |
| 2026-05-06 18:09 | 55.97010 | 21.09634 | 41 ft | 0 kts | 287° |